createdAt,value
2023-05-05T00:02:20.117Z,16.20
2023-05-05T00:04:47.260Z,16.20
2023-05-05T00:07:13.933Z,16.20
2023-05-05T00:09:41.374Z,16.10
2023-05-05T00:12:10.549Z,16.10
2023-05-05T00:14:37.194Z,16.10
2023-05-05T00:17:04.072Z,16.00
2023-05-05T00:19:31.081Z,16.00
2023-05-05T00:21:57.731Z,15.90
2023-05-05T00:24:24.463Z,15.90
2023-05-05T00:26:51.249Z,15.90
2023-05-05T00:29:17.958Z,15.90
2023-05-05T00:31:44.714Z,15.80
2023-05-05T00:34:11.557Z,15.80
2023-05-05T00:36:38.985Z,15.70
2023-05-05T00:39:05.812Z,15.70
2023-05-05T00:41:32.591Z,15.60
2023-05-05T00:43:59.315Z,15.60
2023-05-05T00:46:30.723Z,15.70
2023-05-05T00:48:57.871Z,15.70
2023-05-05T00:51:25.200Z,15.80
2023-05-05T00:53:52.141Z,15.80
2023-05-05T00:56:20.758Z,15.90
2023-05-05T00:58:48.021Z,15.90
2023-05-05T01:01:15.406Z,15.80
2023-05-05T01:03:42.297Z,15.80
2023-05-05T01:06:15.904Z,15.80
2023-05-05T01:08:45.414Z,15.70
2023-05-05T01:11:26.138Z,15.70
2023-05-05T01:14:01.367Z,15.70
2023-05-05T01:16:31.255Z,15.70
2023-05-05T01:19:23.286Z,15.60
2023-05-05T01:22:00.628Z,15.60
2023-05-05T01:25:02.680Z,15.60
2023-05-05T01:27:41.307Z,15.70
2023-05-05T01:30:29.636Z,15.80
2023-05-05T01:33:09.173Z,15.80
2023-05-05T01:35:47.027Z,15.80
2023-05-05T01:38:19.676Z,15.90
2023-05-05T01:40:55.280Z,15.90
2023-05-05T01:43:23.714Z,15.90
2023-05-05T01:45:52.083Z,15.90
2023-05-05T01:48:20.292Z,16.00
2023-05-05T01:50:48.734Z,16.00
2023-05-05T01:53:17.570Z,16.00
2023-05-05T01:55:46.157Z,16.10
2023-05-05T01:58:14.442Z,16.00
2023-05-05T02:00:42.685Z,16.10
2023-05-05T02:03:11.339Z,16.00
2023-05-05T02:05:39.747Z,16.10
2023-05-05T02:08:08.699Z,16.10
2023-05-05T02:10:37.989Z,15.90
2023-05-05T02:13:05.305Z,15.90
2023-05-05T02:15:34.065Z,15.90
2023-05-05T02:18:02.181Z,15.90
2023-05-05T02:20:31.584Z,15.90
2023-05-05T02:22:59.072Z,15.90
2023-05-05T02:25:38.372Z,15.90
2023-05-05T02:28:11.710Z,15.90
2023-05-05T02:30:40.065Z,15.90
2023-05-05T02:33:10.073Z,15.80
2023-05-05T02:35:40.132Z,15.80
2023-05-05T02:38:17.261Z,15.80
2023-05-05T02:40:49.699Z,15.80
2023-05-05T02:43:21.585Z,15.70
2023-05-05T02:45:48.588Z,15.70
2023-05-05T02:48:16.629Z,15.70
2023-05-05T02:50:43.405Z,15.60
2023-05-05T02:53:27.022Z,15.60
2023-05-05T02:55:57.101Z,15.50
2023-05-05T02:58:34.645Z,15.50
2023-05-05T03:01:10.874Z,15.40
2023-05-05T03:03:51.704Z,15.40
2023-05-05T03:06:21.561Z,15.30
2023-05-05T03:09:01.954Z,15.30
2023-05-05T03:11:49.609Z,15.20
2023-05-05T03:14:21.043Z,15.20
2023-05-05T03:16:50.051Z,15.10
2023-05-05T03:19:18.733Z,15.10
2023-05-05T03:21:48.019Z,15.00
2023-05-05T03:24:16.479Z,14.90
2023-05-05T03:26:49.443Z,14.90
2023-05-05T03:29:19.253Z,14.80
2023-05-05T03:31:46.248Z,14.80
2023-05-05T03:34:13.279Z,14.70
2023-05-05T03:36:45.064Z,14.70
2023-05-05T03:39:14.527Z,14.60
2023-05-05T03:41:41.314Z,14.60
2023-05-05T03:44:09.513Z,14.50
2023-05-05T03:46:37.201Z,14.50
2023-05-05T03:49:07.094Z,14.50
2023-05-05T03:51:33.869Z,14.40
2023-05-05T03:54:00.574Z,14.40
2023-05-05T03:56:27.393Z,14.40
2023-05-05T03:58:54.184Z,14.40
2023-05-05T04:01:20.943Z,14.40
2023-05-05T04:03:48.001Z,14.40
2023-05-05T04:06:17.532Z,14.40
2023-05-05T04:08:44.196Z,14.30
2023-05-05T04:11:10.853Z,14.30
2023-05-05T04:13:38.054Z,14.30
2023-05-05T04:16:05.337Z,14.30
2023-05-05T04:18:32.315Z,14.20
2023-05-05T04:20:59.249Z,14.20
2023-05-05T04:23:26.460Z,14.20
2023-05-05T04:25:53.590Z,14.20
2023-05-05T04:28:21.756Z,14.20
2023-05-05T04:30:49.383Z,14.20
2023-05-05T04:33:16.182Z,14.10
2023-05-05T04:35:42.917Z,14.10
2023-05-05T04:38:10.275Z,14.10
2023-05-05T04:40:41.253Z,14.00
2023-05-05T04:43:09.836Z,14.00
2023-05-05T04:45:36.953Z,14.00
2023-05-05T04:48:05.177Z,14.00
2023-05-05T04:50:32.428Z,14.00
2023-05-05T04:52:59.158Z,13.90
2023-05-05T04:55:26.436Z,13.90
2023-05-05T04:57:53.639Z,14.00
2023-05-05T05:00:20.368Z,13.90
2023-05-05T05:02:47.291Z,14.00
2023-05-05T05:05:14.102Z,14.00
2023-05-05T05:07:41.940Z,14.00
2023-05-05T05:10:09.380Z,13.90
2023-05-05T05:12:36.921Z,13.90
2023-05-05T05:15:04.137Z,13.90
2023-05-05T05:17:31.392Z,13.90
2023-05-05T05:20:01.480Z,13.90
2023-05-05T05:22:30.865Z,13.90
2023-05-05T05:24:58.550Z,14.00
2023-05-05T05:27:25.423Z,14.00
2023-05-05T05:29:53.813Z,14.00
2023-05-05T05:32:20.610Z,14.00
2023-05-05T05:34:48.100Z,14.10
2023-05-05T05:37:15.972Z,14.10
2023-05-05T05:39:43.704Z,14.10
2023-05-05T05:42:11.177Z,14.10
2023-05-05T05:44:37.920Z,14.10
2023-05-05T05:47:04.827Z,14.10
2023-05-05T05:49:31.538Z,14.20
2023-05-05T05:51:58.250Z,14.20
2023-05-05T05:54:24.909Z,14.20
2023-05-05T05:56:51.830Z,14.20
2023-05-05T05:59:21.378Z,14.30
2023-05-05T06:01:48.261Z,14.30
2023-05-05T06:04:15.243Z,14.30
2023-05-05T06:06:42.192Z,14.30
2023-05-05T06:09:08.863Z,14.40
2023-05-05T06:11:37.029Z,14.40
2023-05-05T06:14:03.740Z,14.40
2023-05-05T06:16:31.101Z,14.50
2023-05-05T06:19:00.863Z,14.50
2023-05-05T06:21:27.823Z,14.60
2023-05-05T06:23:54.724Z,14.60
2023-05-05T06:26:21.577Z,14.60
2023-05-05T06:28:48.292Z,14.70
2023-05-05T06:31:15.061Z,14.70
2023-05-05T06:33:43.063Z,14.80
2023-05-05T06:36:09.872Z,14.90
2023-05-05T06:38:36.639Z,14.90
2023-05-05T06:41:03.470Z,14.90
2023-05-05T06:43:30.368Z,15.00
2023-05-05T06:45:59.958Z,15.00
2023-05-05T06:48:26.708Z,15.10
2023-05-05T06:50:53.355Z,15.10
2023-05-05T06:53:20.007Z,15.20
2023-05-05T06:55:47.443Z,15.20
2023-05-05T06:58:14.246Z,15.30
2023-05-05T07:00:41.006Z,15.40
2023-05-05T07:03:07.996Z,15.40
2023-05-05T07:05:34.704Z,15.50
2023-05-05T07:08:01.416Z,15.50
2023-05-05T07:10:28.516Z,15.60
2023-05-05T07:12:55.434Z,15.70
2023-05-05T07:15:28.523Z,15.70
2023-05-05T07:17:56.503Z,15.70
2023-05-05T07:20:23.410Z,15.80
2023-05-05T07:22:50.278Z,15.90
2023-05-05T07:25:16.998Z,15.90
2023-05-05T07:27:43.818Z,16.00
2023-05-05T07:30:13.413Z,16.00
2023-05-05T07:32:42.267Z,16.10
2023-05-05T07:35:09.275Z,16.10
2023-05-05T07:37:36.379Z,16.20
2023-05-05T07:40:03.292Z,16.20
2023-05-05T07:42:29.940Z,16.30
2023-05-05T07:44:56.682Z,16.40
2023-05-05T07:47:23.439Z,16.50
2023-05-05T07:49:50.447Z,16.60
2023-05-05T07:52:17.207Z,16.70
2023-05-05T07:54:45.160Z,16.80
2023-05-05T07:57:11.885Z,16.90
2023-05-05T07:59:41.029Z,16.90
2023-05-05T08:02:10.630Z,17.00
2023-05-05T08:04:37.321Z,17.00
2023-05-05T08:07:03.955Z,17.10
2023-05-05T08:09:30.715Z,17.10
2023-05-05T08:11:57.422Z,17.20
2023-05-05T08:14:24.150Z,17.30
2023-05-05T08:16:50.897Z,17.30
2023-05-05T08:19:28.316Z,17.40
2023-05-05T08:21:56.100Z,17.50
2023-05-05T08:24:25.931Z,17.50
2023-05-05T08:26:52.876Z,17.70
2023-05-05T08:29:19.561Z,17.80
2023-05-05T08:31:46.247Z,17.80
2023-05-05T08:34:12.941Z,18.00
2023-05-05T08:36:39.650Z,18.10
2023-05-05T08:39:07.192Z,18.20
2023-05-05T08:41:34.270Z,18.40
2023-05-05T08:44:02.152Z,18.40
2023-05-05T08:46:30.886Z,18.60
2023-05-05T08:48:58.023Z,18.70
2023-05-05T08:51:28.474Z,18.80
2023-05-05T08:53:55.134Z,18.90
2023-05-05T08:56:22.349Z,19.00
2023-05-05T08:58:51.786Z,19.10
2023-05-05T09:01:19.006Z,19.10
2023-05-05T09:03:46.245Z,19.10
2023-05-05T09:06:13.993Z,19.10
2023-05-05T09:08:41.244Z,19.00
2023-05-05T09:11:07.951Z,19.00
2023-05-05T09:13:34.677Z,18.90
2023-05-05T09:16:01.493Z,18.90
2023-05-05T09:18:29.405Z,18.90
2023-05-05T09:20:58.127Z,18.90
2023-05-05T09:23:26.154Z,18.90
2023-05-05T09:26:06.067Z,19.00
2023-05-05T09:28:32.812Z,19.10
2023-05-05T09:31:15.956Z,19.10
2023-05-05T09:33:43.571Z,19.10
2023-05-05T09:36:11.510Z,19.10
2023-05-05T09:38:38.260Z,19.10
2023-05-05T09:41:06.370Z,19.00
2023-05-05T09:43:51.568Z,19.10
2023-05-05T09:46:18.367Z,19.10
2023-05-05T09:48:45.041Z,19.10
2023-05-05T09:51:11.901Z,19.20
2023-05-05T09:53:40.488Z,19.20
2023-05-05T09:56:07.760Z,19.40
2023-05-05T09:58:34.533Z,19.40
2023-05-05T10:01:01.320Z,19.60
2023-05-05T10:03:28.021Z,19.50
2023-05-05T10:05:57.293Z,19.50
2023-05-05T10:08:29.306Z,19.40
2023-05-05T10:11:01.753Z,19.30
2023-05-05T10:13:29.981Z,19.30
2023-05-05T10:15:57.680Z,19.20
2023-05-05T10:18:30.988Z,19.10
2023-05-05T10:20:59.372Z,18.90
2023-05-05T10:23:39.163Z,18.60
2023-05-05T10:26:07.767Z,18.20
2023-05-05T10:28:45.963Z,17.90
2023-05-05T10:31:41.530Z,17.50
2023-05-05T10:34:18.164Z,17.00
2023-05-05T10:36:45.298Z,16.70
2023-05-05T10:39:15.055Z,16.40
2023-05-05T10:41:42.357Z,16.30
2023-05-05T10:44:10.663Z,16.20
2023-05-05T10:46:38.097Z,16.10
2023-05-05T10:49:46.919Z,15.90
2023-05-05T10:52:34.978Z,15.90
2023-05-05T10:55:11.427Z,15.90
2023-05-05T10:57:42.364Z,15.80
2023-05-05T11:00:10.233Z,15.80
2023-05-05T11:02:37.472Z,15.70
2023-05-05T11:05:20.554Z,15.70
2023-05-05T11:07:49.850Z,15.60
2023-05-05T11:10:20.217Z,15.60
2023-05-05T11:12:59.262Z,15.60
2023-05-05T11:15:29.249Z,15.50
2023-05-05T11:17:57.502Z,15.40
2023-05-05T11:20:43.460Z,15.30
2023-05-05T11:23:10.178Z,15.30
2023-05-05T11:25:37.628Z,15.20
2023-05-05T11:28:09.078Z,15.10
2023-05-05T11:30:57.219Z,15.00
2023-05-05T11:33:31.474Z,15.10
2023-05-05T11:36:09.200Z,15.10
2023-05-05T11:39:00.805Z,15.00
2023-05-05T11:41:30.539Z,15.00
2023-05-05T11:44:13.086Z,14.90
2023-05-05T11:47:02.016Z,14.90
2023-05-05T11:49:32.767Z,14.80
2023-05-05T11:52:00.431Z,14.70
2023-05-05T11:54:28.049Z,14.70
2023-05-05T11:56:56.657Z,14.60
2023-05-05T11:59:23.475Z,14.60
2023-05-05T12:01:50.327Z,14.60
2023-05-05T12:04:18.189Z,14.50
2023-05-05T12:06:46.123Z,14.40
2023-05-05T12:09:17.385Z,14.40
2023-05-05T12:11:50.482Z,14.40
2023-05-05T12:14:17.123Z,14.50
2023-05-05T12:17:04.455Z,14.50
2023-05-05T12:19:33.184Z,14.50
2023-05-05T12:22:00.792Z,14.40
2023-05-05T12:24:27.482Z,14.50
2023-05-05T12:26:54.176Z,14.40
2023-05-05T12:29:28.430Z,14.50
2023-05-05T12:31:55.741Z,14.50
2023-05-05T12:34:23.559Z,14.50
2023-05-05T12:36:50.468Z,14.50
2023-05-05T12:39:17.166Z,14.40
2023-05-05T12:41:44.160Z,14.50
2023-05-05T12:44:11.065Z,14.50
2023-05-05T12:46:48.042Z,14.60
2023-05-05T12:49:19.885Z,14.60
2023-05-05T12:54:50.856Z,14.70
2023-05-05T12:57:18.718Z,14.70
2023-05-05T12:59:45.874Z,14.70
2023-05-05T13:02:12.657Z,14.70
2023-05-05T13:04:53.438Z,14.70
2023-05-05T13:07:21.982Z,14.70
2023-05-05T13:09:50.061Z,14.70
2023-05-05T13:12:21.072Z,14.60
2023-05-05T13:14:48.466Z,14.70
2023-05-05T13:17:15.249Z,14.60
2023-05-05T13:19:42.745Z,14.60
2023-05-05T13:22:13.179Z,14.60
2023-05-05T13:24:50.810Z,14.60
2023-05-05T13:27:20.118Z,14.60
2023-05-05T13:29:46.842Z,14.60
2023-05-05T13:32:13.944Z,14.70
2023-05-05T13:34:41.537Z,14.80
2023-05-05T13:37:08.639Z,14.80
2023-05-05T13:39:35.534Z,14.80
2023-05-05T13:42:02.454Z,14.80
2023-05-05T13:44:29.351Z,14.80
2023-05-05T13:46:56.295Z,14.80
2023-05-05T13:49:22.963Z,14.80
2023-05-05T13:51:49.677Z,14.70
2023-05-05T13:54:16.414Z,14.70
2023-05-05T13:56:43.713Z,14.70
2023-05-05T13:59:10.416Z,14.70
2023-05-05T14:01:37.303Z,14.70
2023-05-05T14:04:05.731Z,14.70
2023-05-05T14:06:33.463Z,14.70
2023-05-05T14:09:00.193Z,14.70
2023-05-05T14:11:26.945Z,14.70
2023-05-05T14:13:54.025Z,14.70
2023-05-05T14:16:20.810Z,14.70
2023-05-05T14:18:47.725Z,14.70
2023-05-05T14:21:14.416Z,14.70
2023-05-05T14:23:41.113Z,14.70
2023-05-05T14:26:08.871Z,14.60
2023-05-05T14:28:35.904Z,14.60
2023-05-05T14:31:02.846Z,14.50
2023-05-05T14:33:29.670Z,14.50
2023-05-05T14:35:56.613Z,14.50
2023-05-05T14:38:23.291Z,14.50
2023-05-05T14:40:50.236Z,14.50
2023-05-05T14:43:16.959Z,14.50
2023-05-05T14:45:44.335Z,14.50
2023-05-05T14:48:11.139Z,14.60
2023-05-05T14:50:39.880Z,14.60
2023-05-05T14:53:06.770Z,14.70
2023-05-05T14:55:33.532Z,15.00
2023-05-05T14:58:00.181Z,15.50
2023-05-05T15:00:27.075Z,15.80
2023-05-05T15:02:54.083Z,16.00
2023-05-05T15:05:20.993Z,16.30
2023-05-05T15:07:47.710Z,16.40
2023-05-05T15:10:14.974Z,16.40
2023-05-05T15:12:42.715Z,16.20
2023-05-05T15:15:10.056Z,16.30
2023-05-05T15:17:38.835Z,16.50
2023-05-05T15:20:06.664Z,16.40
2023-05-05T15:22:33.813Z,16.30
2023-05-05T15:25:01.255Z,16.30
2023-05-05T15:27:28.143Z,16.30
2023-05-05T15:29:55.264Z,16.60
2023-05-05T15:32:22.212Z,17.00
2023-05-05T15:34:50.351Z,17.10
2023-05-05T15:37:17.341Z,17.10
2023-05-05T15:39:44.046Z,16.90
2023-05-05T15:42:10.859Z,16.80
2023-05-05T15:44:37.569Z,16.80
2023-05-05T15:47:04.771Z,16.70
2023-05-05T15:49:31.649Z,16.60
2023-05-05T15:51:58.526Z,16.50
2023-05-05T15:54:25.272Z,16.40
2023-05-05T15:56:52.126Z,16.40
2023-05-05T15:59:19.343Z,16.30
2023-05-05T16:01:46.876Z,16.20
2023-05-05T16:04:14.004Z,16.20
2023-05-05T16:06:51.011Z,16.10
2023-05-05T16:09:17.679Z,16.10
2023-05-05T16:11:44.509Z,16.30
2023-05-05T16:14:11.238Z,16.40
2023-05-05T16:16:37.985Z,16.50
2023-05-05T16:19:04.789Z,16.60
2023-05-05T16:21:31.736Z,16.60
2023-05-05T16:23:58.385Z,16.50
2023-05-05T16:26:25.101Z,16.40
2023-05-05T16:28:52.240Z,16.40
2023-05-05T16:31:19.092Z,16.30
2023-05-05T16:33:45.887Z,16.30
2023-05-05T16:36:14.365Z,16.30
2023-05-05T16:38:41.229Z,16.40
2023-05-05T16:41:08.326Z,16.50
2023-05-05T16:43:37.180Z,16.60
2023-05-05T16:46:04.277Z,16.60
2023-05-05T16:48:31.083Z,16.70
2023-05-05T16:50:58.461Z,16.80
2023-05-05T16:53:25.604Z,16.80
2023-05-05T16:55:53.394Z,16.70
2023-05-05T16:58:21.121Z,16.70
2023-05-05T17:00:49.060Z,16.60
2023-05-05T17:03:17.029Z,16.50
2023-05-05T17:05:44.512Z,16.50
2023-05-05T17:08:14.007Z,16.50
2023-05-05T17:10:41.502Z,16.40
2023-05-05T17:13:12.571Z,16.40
2023-05-05T17:15:40.001Z,16.30
2023-05-05T17:18:07.572Z,16.30
2023-05-05T17:20:34.888Z,16.30
2023-05-05T17:23:04.929Z,16.30
2023-05-05T17:25:31.836Z,16.30
2023-05-05T17:27:58.516Z,16.30
2023-05-05T17:30:25.529Z,16.30
2023-05-05T17:32:52.508Z,16.30
2023-05-05T17:35:19.614Z,16.20
2023-05-05T17:37:46.258Z,16.20
2023-05-05T17:40:12.981Z,16.10
2023-05-05T17:42:39.740Z,16.10
2023-05-05T17:45:07.758Z,16.10
2023-05-05T17:47:34.723Z,16.10
2023-05-05T17:50:01.545Z,16.10
2023-05-05T17:52:28.285Z,16.00
2023-05-05T17:54:55.147Z,16.00
2023-05-05T17:57:22.703Z,16.00
2023-05-05T17:59:50.080Z,16.00
2023-05-05T18:02:17.301Z,16.00
2023-05-05T18:04:44.222Z,16.00
2023-05-05T18:07:12.280Z,16.00
2023-05-05T18:09:39.342Z,16.00
2023-05-05T18:12:07.719Z,15.90
2023-05-05T18:14:34.533Z,15.90
2023-05-05T18:17:01.275Z,15.80
2023-05-05T18:19:27.945Z,15.80
2023-05-05T18:21:54.638Z,15.80
2023-05-05T18:24:21.372Z,15.80
2023-05-05T18:26:50.366Z,15.80
2023-05-05T18:29:18.321Z,15.80
2023-05-05T18:31:49.121Z,15.70
2023-05-05T18:34:16.723Z,15.70
2023-05-05T18:36:43.518Z,15.60
2023-05-05T18:39:10.165Z,15.60
2023-05-05T18:41:37.071Z,15.50
2023-05-05T18:44:12.812Z,15.50
2023-05-05T18:46:46.976Z,15.50
2023-05-05T18:49:13.932Z,15.40
2023-05-05T18:51:41.318Z,15.40
2023-05-05T18:54:08.283Z,15.30
2023-05-05T18:56:35.218Z,15.20
2023-05-05T18:59:02.042Z,15.20
2023-05-05T19:01:28.959Z,15.10
2023-05-05T19:03:55.745Z,15.10
2023-05-05T19:06:25.687Z,15.10
2023-05-05T19:08:52.490Z,14.90
2023-05-05T19:11:34.924Z,14.80
2023-05-05T19:14:01.659Z,14.80
2023-05-05T19:16:30.074Z,14.70
2023-05-05T19:18:59.536Z,14.50
2023-05-05T19:21:27.806Z,14.50
2023-05-05T19:23:54.648Z,14.50
2023-05-05T19:26:22.044Z,14.50
2023-05-05T19:28:48.746Z,14.40
2023-05-05T19:31:15.486Z,14.40
2023-05-05T19:33:45.407Z,14.40
2023-05-05T19:36:12.694Z,14.40
2023-05-05T19:38:44.184Z,14.40
2023-05-05T19:41:11.934Z,14.40
2023-05-05T19:43:38.733Z,14.30
2023-05-05T19:46:06.142Z,14.20
2023-05-05T19:48:32.951Z,14.20
2023-05-05T19:50:59.881Z,14.20
2023-05-05T19:53:27.715Z,14.10
2023-05-05T19:55:54.553Z,14.10
2023-05-05T19:58:21.874Z,14.10
2023-05-05T20:00:48.556Z,14.10
2023-05-05T20:03:30.097Z,14.10
2023-05-05T20:06:22.187Z,14.00
2023-05-05T20:08:49.102Z,14.00
2023-05-05T20:11:16.171Z,13.90
2023-05-05T20:13:43.199Z,13.80
2023-05-05T20:16:10.085Z,13.70
2023-05-05T20:18:36.953Z,13.70
2023-05-05T20:23:48.073Z,13.60
2023-05-05T20:26:14.896Z,13.60
2023-05-05T20:28:45.127Z,13.60
2023-05-05T20:34:14.744Z,13.60
2023-05-05T20:36:41.695Z,13.60
2023-05-05T20:39:08.552Z,13.50
2023-05-05T20:41:36.639Z,13.50
2023-05-05T20:44:03.402Z,13.50
2023-05-05T20:46:30.299Z,13.40
2023-05-05T20:48:57.310Z,13.40
2023-05-05T20:51:24.120Z,13.30
2023-05-05T20:53:51.241Z,13.30
2023-05-05T20:56:17.947Z,13.20
2023-05-05T20:58:44.590Z,13.10
2023-05-05T21:01:11.774Z,13.00
2023-05-05T21:03:38.480Z,13.00
2023-05-05T21:06:05.429Z,13.00
2023-05-05T21:08:32.103Z,12.90
2023-05-05T21:10:58.731Z,12.90
2023-05-05T21:13:25.463Z,12.80
2023-05-05T21:15:52.133Z,12.90
2023-05-05T21:18:18.877Z,12.90
2023-05-05T21:20:45.555Z,12.80
2023-05-05T21:23:12.189Z,12.80
2023-05-05T21:25:38.905Z,12.80
2023-05-05T21:28:05.700Z,12.70
2023-05-05T21:30:32.441Z,12.70
2023-05-05T21:33:00.213Z,12.60
2023-05-05T21:35:29.905Z,12.60
2023-05-05T21:37:56.818Z,12.60
2023-05-05T21:40:25.858Z,12.60
2023-05-05T21:42:52.521Z,12.60
2023-05-05T21:45:19.940Z,12.60
2023-05-05T21:47:46.931Z,12.50
2023-05-05T21:50:13.877Z,12.50
2023-05-05T21:52:41.355Z,12.40
2023-05-05T21:55:10.974Z,12.40
2023-05-05T21:57:37.788Z,12.30
2023-05-05T22:00:05.955Z,12.30
2023-05-05T22:02:39.242Z,12.20
2023-05-05T22:05:06.546Z,12.20
2023-05-05T22:07:33.235Z,12.20
2023-05-05T22:09:59.916Z,12.20
2023-05-05T22:12:27.020Z,12.20
2023-05-05T22:14:53.717Z,12.20
2023-05-05T22:17:20.638Z,12.20
2023-05-05T22:19:47.305Z,12.20
2023-05-05T22:22:14.071Z,12.20
2023-05-05T22:24:40.709Z,12.20
2023-05-05T22:27:07.410Z,12.20
2023-05-05T22:29:34.301Z,12.20
2023-05-05T22:32:00.989Z,12.10
2023-05-05T22:34:27.681Z,12.10
2023-05-05T22:36:54.399Z,12.20
2023-05-05T22:39:21.170Z,12.20
2023-05-05T22:41:47.925Z,12.20
2023-05-05T22:44:14.866Z,12.20
2023-05-05T22:46:42.001Z,12.10
2023-05-05T22:49:08.960Z,12.10
2023-05-05T22:51:35.753Z,12.10
2023-05-05T22:54:02.673Z,12.10
2023-05-05T22:56:29.426Z,12.20
2023-05-05T22:58:56.148Z,12.20
2023-05-05T23:01:23.129Z,12.20
2023-05-05T23:03:49.940Z,12.20
2023-05-05T23:06:16.728Z,12.20
2023-05-05T23:08:43.377Z,12.20
2023-05-05T23:11:10.099Z,12.20
2023-05-05T23:13:36.795Z,12.20
2023-05-05T23:16:03.579Z,12.10
2023-05-05T23:18:30.282Z,12.10
2023-05-05T23:20:57.127Z,12.10
2023-05-05T23:23:24.752Z,12.10
2023-05-05T23:25:52.050Z,12.00
2023-05-05T23:28:20.277Z,12.00
2023-05-05T23:30:47.161Z,12.00
2023-05-05T23:33:13.856Z,12.00
2023-05-05T23:35:43.234Z,12.00
2023-05-05T23:38:10.066Z,11.90
2023-05-05T23:40:36.799Z,11.90
2023-05-05T23:43:03.560Z,11.80
2023-05-05T23:45:30.373Z,11.80
2023-05-05T23:47:57.142Z,11.80
2023-05-05T23:50:25.742Z,11.80
2023-05-05T23:52:52.643Z,11.90
2023-05-05T23:55:19.479Z,11.90
2023-05-05T23:57:46.411Z,11.90
